x

West Erie - 16 Nm Nw Of Lorain, Oh (45005) Wave Buoy

3:50pm - Sat 4th Jul 2015 All times are CDT. -5 hours from GMT.

  • Sig Wave height 0.7ft
  • Average Period 3s
  • Wind
    2mph
  • Sea Temp 73°f
  • Air Temp 71°f
  • Sea Pressure 1016.3mb
  • West Erie - 16 Nm Nw Of Lorain, Oh
  • West Erie - 16 Nm Nw Of Lorain, Oh

More Historic Weather Station data

Upgrade to MSW Pro to gain access to the past 30 days of data for over 8000 Wavebouys and Weather Stations around the globe.

Join Pro

Comparision Forecast

View Surf forecast
   
Sat 07/04 3:50pm 0.7ft  -  3s 2
mph
1016.3mb 73f 71f
2:50pm 0.7ft  -  3s 2 4 mph 1016.6mb 71f 70f
1:50pm 0.7ft  -  3s 2 4 mph 1016.4mb 68f 69f
12:50pm 0.7ft  -  3s 2
mph
1016.2mb 70f 68f
11:50am 0.7ft  -  3s 2
mph
1016mb 68f 67f
10:50am 0.7ft  -  3s 4
mph
1015.8mb 67f 67f
9:50am 1ft 2s 3s 9
mph
1015.7mb 66f 66f
8:50am 1ft 3s 3s 9 11 mph 1015.4mb 66f 65f
7:50am 1ft 3s 3s 9 11 mph 1014.8mb 66f 65f
6:50am 1ft 4s 3s 11 13 mph 1014.3mb 66f 65f
5:50am 1ft 4s 3s 11
mph
1013.8mb 66f 65f
4:50am 1ft 4s 3s 9 11 mph 1013.2mb 66f 65f
3:50am 1ft 4s 4s 9 11 mph 1013mb 66f 66f
2:50am 1ft 4s 3s 7 9 mph 1013mb 66f 65f
1:50am 1.3ft 4s 4s 7 9 mph 1012.8mb 66f 65f
12:50am 1.3ft 4s 4s 7 9 mph 1013mb 66f 65f
Fri 07/03 11:50pm 1.3ft 4s 4s 9
mph
1013.1mb 66f 64f
10:50pm 1.6ft 4s 4s 9 11 mph 1013.1mb 66f 64f
9:50pm 1.6ft 4s 4s 7
mph
1013.2mb 66f 64f
8:50pm 1.6ft 4s 4s 9 11 mph 1012.7mb 66f 65f
7:50pm 2ft 4s 3s 11 13 mph 1012.8mb 66f 65f
6:50pm 1.6ft 4s 3s 16
mph
1012.8mb 66f 66f
5:50pm 1.6ft 4s 3s 13 16 mph 1013mb 66f 65f
4:50pm 1.6ft 4s 3s 16 18 mph 1013.2mb 67f 65f
3:50pm 1.6ft 4s 3s 11 13 mph 1013.8mb 67f 65f
2:50pm 1.6ft 4s 3s 13 16 mph 1014mb 65f 65f
1:50pm 1.6ft 4s 3s 13
mph
1014.7mb 65f 65f
12:50pm 1.6ft 3s 3s 11 13 mph 1015.2mb 65f 65f
11:50am 1.6ft 3s 3s 13 16 mph 1014.9mb 65f 64f
10:50am 1.3ft 3s 3s 13 16 mph 1015mb 65f 64f
9:50am 1ft 3s 3s 16
mph
1014.8mb 65f 64f
8:50am 0.7ft  -  3s 11 13 mph 1015.4mb 65f 65f
7:50am 0.7ft  -  3s 11
mph
1015.7mb 64f 64f
6:50am 1ft 3s 3s 9 11 mph 1015.5mb 64f 63f
5:50am 1ft 3s 3s 9 11 mph 1015.2mb 64f 63f
4:50am 1ft 3s 3s 9 11 mph 1015.1mb 64f 63f
3:50am 1.3ft 3s 3s 9 11 mph 1015.1mb 65f 63f
2:50am 1.3ft 3s 3s 11
mph
1015.4mb 65f 63f
1:50am 1.3ft 3s 3s 13
mph
1015.4mb 65f 63f
12:50am 1ft 3s 3s 13 16 mph 1015.5mb 65f 64f
Thu 07/02 11:50pm 0.7ft  -  3s 13 16 mph 1015.8mb 65f 64f
10:50pm 0.7ft  -  3s 11 16 mph 1015.7mb 65f 65f
9:50pm 0.7ft  -  3s 9 11 mph 1015.6mb 66f 64f
8:50pm 0.7ft  -  3s 7
mph
1015.2mb 66f 64f
7:50pm 0.7ft  -  3s 7
mph
1015mb 66f 65f
6:50pm 0.7ft  -  3s 7
mph
1014.8mb 66f 65f
5:50pm 0.7ft  -  3s 7 9 mph 1014.9mb 66f 65f
4:50pm 1ft 3s 3s 7 9 mph 1014.8mb 66f 64f
3:50pm 1ft 4s 3s 7 9 mph 1015.2mb 66f 64f
2:50pm 1ft 3s 3s 7 9 mph 1015.6mb 65f 63f
1:50pm 1ft 4s 3s 9
mph
1015.5mb 65f 63f
12:50pm 1.3ft 4s 3s 11
mph
1015.7mb 65f 62f
11:50am 1.3ft 4s 3s 11 13 mph 1016.2mb 65f 62f
10:50am 1.6ft 4s 3s 13
mph
1016.3mb 65f 62f
9:50am 1.6ft 4s 3s 13
mph
1015.5mb 64f 62f
8:50am 1.6ft 3s 3s 13 16 mph 1015.3mb 64f 62f
7:50am 1.6ft 4s 3s 16 18 mph 1015mb 64f 62f
6:50am 1.6ft 3s 3s 16 18 mph 1014.6mb 64f 62f
5:50am 1.3ft 3s 3s 16 18 mph 1014.4mb 64f 62f
4:50am 1.3ft 3s 3s 16 18 mph 1014.1mb 64f 63f
3:50am 1.3ft 3s 3s 13 16 mph 1014mb 65f 62f
2:50am 1.3ft 3s 3s 11 16 mph 1013.9mb 65f 63f
1:50am 1.3ft 3s 3s 13 16 mph 1014.1mb 65f 64f
12:50am 1ft 3s 3s 13 16 mph 1014.1mb 65f 64f
Wed 07/01 11:50pm 0.7ft  -  3s 13 16 mph 1013.8mb 65f 65f
10:50pm 1ft 2s 3s 11 13 mph 1013.9mb 66f 66f
9:50pm 0.7ft  -  3s 13 16 mph 1013.6mb 66f 67f
8:50pm 0.7ft  -  3s 11 13 mph 1013.3mb 66f 67f
7:50pm 0.3ft  -  3s 4
mph
1012.5mb 67f 68f
6:50pm 0.3ft  -  3s 2 4 mph 1012.3mb 67f 68f
5:50pm 0.3ft  -  3s 4
mph
1011.9mb 67f 70f
4:50pm 0.7ft  -  3s 7
mph
1012.2mb 67f 69f
3:50pm 0.7ft  -  3s 4 7 mph 1012.2mb 67f 69f
2:50pm 1ft 3s 3s 9
mph
1012.2mb 66f 68f
1:50pm 1ft 3s 3s 9 11 mph 1012.6mb 66f 67f
12:50pm 1ft 3s 3s 13 16 mph 1012.9mb 65f 67f
11:50am 1ft 3s 3s 7 11 mph 1012.6mb 65f 66f
10:50am 1ft 3s 3s 2 4 mph 1012.4mb 65f 66f
9:50am 0.7ft  -  3s 4
mph
1012.1mb 65f 65f
8:50am 0.7ft  -  3s 7 9 mph 1011.5mb 65f 64f
7:50am 1ft 3s 3s 7 9 mph 1011mb 65f 65f
6:50am 1ft 4s 3s 7
mph
1010.8mb 65f 65f
5:50am 1ft 3s 3s 9 11 mph 1010mb 65f 65f
4:50am 1.3ft 3s 3s 11 13 mph 1009.4mb 66f 65f
3:50am 1.3ft 3s 3s 13 18 mph 1008.8mb 66f 67f
2:50am 1.3ft 3s 3s 13 16 mph 1008.5mb 66f 67f
1:50am 1.3ft 3s 3s 13 16 mph 1008.2mb 66f 67f
12:50am 1.3ft 3s 3s 16 18 mph 1008.3mb 66f 68f
Tue 06/30 11:50pm 1.3ft 3s 3s 11 13 mph 1008.2mb 66f 68f
10:50pm 0.7ft  -  3s 16 18 mph 1008.2mb 66f 68f
9:50pm 0.3ft  -  3s 16 31 mph 1008.3mb 67f 69f